sensor_id;sensor_type;location;lat;lon;timestamp;P1;durP1;ratioP1;P2;durP2;ratioP2
74833;SDS011;63361;52.384;20.930;2022-10-16T00:01:04;25.10;;;13.37;;
74833;SDS011;63361;52.384;20.930;2022-10-16T00:03:31;24.15;;;14.45;;
74833;SDS011;63361;52.384;20.930;2022-10-16T00:05:58;22.87;;;13.70;;
74833;SDS011;63361;52.384;20.930;2022-10-16T00:08:25;23.27;;;13.25;;
74833;SDS011;63361;52.384;20.930;2022-10-16T00:10:50;26.77;;;14.43;;
74833;SDS011;63361;52.384;20.930;2022-10-16T00:13:16;19.67;;;11.27;;
74833;SDS011;63361;52.384;20.930;2022-10-16T00:15:43;24.03;;;13.87;;
74833;SDS011;63361;52.384;20.930;2022-10-16T00:18:09;23.48;;;13.50;;
74833;SDS011;63361;52.384;20.930;2022-10-16T00:20:35;25.92;;;14.25;;
74833;SDS011;63361;52.384;20.930;2022-10-16T00:23:02;22.38;;;12.07;;
74833;SDS011;63361;52.384;20.930;2022-10-16T00:25:28;18.92;;;10.73;;
74833;SDS011;63361;52.384;20.930;2022-10-16T00:27:54;20.43;;;11.47;;
74833;SDS011;63361;52.384;20.930;2022-10-16T00:30:19;20.90;;;11.30;;
74833;SDS011;63361;52.384;20.930;2022-10-16T00:32:45;17.73;;;10.30;;
74833;SDS011;63361;52.384;20.930;2022-10-16T00:35:10;19.27;;;10.77;;
74833;SDS011;63361;52.384;20.930;2022-10-16T00:37:35;16.73;;;9.82;;
74833;SDS011;63361;52.384;20.930;2022-10-16T00:40:01;19.03;;;10.10;;
74833;SDS011;63361;52.384;20.930;2022-10-16T00:42:26;16.03;;;9.77;;
74833;SDS011;63361;52.384;20.930;2022-10-16T00:44:55;18.30;;;9.17;;
74833;SDS011;63361;52.384;20.930;2022-10-16T00:47:34;16.90;;;9.45;;
74833;SDS011;63361;52.384;20.930;2022-10-16T00:50:16;16.15;;;9.23;;
74833;SDS011;63361;52.384;20.930;2022-10-16T00:52:44;15.40;;;9.17;;
74833;SDS011;63361;52.384;20.930;2022-10-16T00:55:12;15.38;;;8.95;;
74833;SDS011;63361;52.384;20.930;2022-10-16T00:57:39;16.50;;;9.48;;
74833;SDS011;63361;52.384;20.930;2022-10-16T01:00:06;14.07;;;8.90;;
74833;SDS011;63361;52.384;20.930;2022-10-16T01:02:32;16.48;;;9.90;;
74833;SDS011;63361;52.384;20.930;2022-10-16T01:04:58;22.63;;;9.37;;
74833;SDS011;63361;52.384;20.930;2022-10-16T01:15:16;14.33;;;8.47;;
74833;SDS011;63361;52.384;20.930;2022-10-16T01:18:00;16.80;;;8.93;;
74833;SDS011;63361;52.384;20.930;2022-10-16T01:20:44;15.00;;;8.52;;
74833;SDS011;63361;52.384;20.930;2022-10-16T01:23:18;14.03;;;7.73;;
74833;SDS011;63361;52.384;20.930;2022-10-16T01:26:11;14.25;;;7.78;;
74833;SDS011;63361;52.384;20.930;2022-10-16T01:31:33;17.45;;;8.63;;
74833;SDS011;63361;52.384;20.930;2022-10-16T01:36:56;14.73;;;8.37;;
74833;SDS011;63361;52.384;20.930;2022-10-16T01:39:28;13.55;;;8.18;;
74833;SDS011;63361;52.384;20.930;2022-10-16T01:42:00;13.63;;;8.35;;
74833;SDS011;63361;52.384;20.930;2022-10-16T01:44:31;14.85;;;8.38;;
74833;SDS011;63361;52.384;20.930;2022-10-16T01:46:58;13.55;;;8.40;;
74833;SDS011;63361;52.384;20.930;2022-10-16T01:49:26;13.83;;;8.27;;
74833;SDS011;63361;52.384;20.930;2022-10-16T01:51:56;16.48;;;9.73;;
74833;SDS011;63361;52.384;20.930;2022-10-16T01:54:28;17.08;;;8.95;;
74833;SDS011;63361;52.384;20.930;2022-10-16T01:56:57;17.77;;;8.82;;
74833;SDS011;63361;52.384;20.930;2022-10-16T01:59:24;18.42;;;9.45;;
74833;SDS011;63361;52.384;20.930;2022-10-16T02:01:59;16.13;;;9.17;;
74833;SDS011;63361;52.384;20.930;2022-10-16T02:04:27;15.98;;;9.25;;
74833;SDS011;63361;52.384;20.930;2022-10-16T02:06:56;15.07;;;8.75;;
74833;SDS011;63361;52.384;20.930;2022-10-16T02:09:22;17.20;;;9.50;;
74833;SDS011;63361;52.384;20.930;2022-10-16T02:11:47;18.40;;;9.30;;
74833;SDS011;63361;52.384;20.930;2022-10-16T02:14:15;15.43;;;9.17;;
74833;SDS011;63361;52.384;20.930;2022-10-16T02:16:42;15.55;;;8.85;;
74833;SDS011;63361;52.384;20.930;2022-10-16T02:19:09;16.13;;;9.85;;
74833;SDS011;63361;52.384;20.930;2022-10-16T02:21:39;15.53;;;9.67;;
74833;SDS011;63361;52.384;20.930;2022-10-16T02:24:12;18.88;;;10.13;;
74833;SDS011;63361;52.384;20.930;2022-10-16T02:29:16;16.70;;;10.27;;
74833;SDS011;63361;52.384;20.930;2022-10-16T02:31:46;16.58;;;9.55;;
74833;SDS011;63361;52.384;20.930;2022-10-16T02:34:16;17.67;;;10.43;;
74833;SDS011;63361;52.384;20.930;2022-10-16T02:36:43;17.15;;;10.65;;
74833;SDS011;63361;52.384;20.930;2022-10-16T02:39:10;21.58;;;12.05;;
74833;SDS011;63361;52.384;20.930;2022-10-16T02:41:36;17.77;;;10.95;;
74833;SDS011;63361;52.384;20.930;2022-10-16T02:44:02;18.37;;;11.27;;
74833;SDS011;63361;52.384;20.930;2022-10-16T02:46:28;20.35;;;11.18;;
74833;SDS011;63361;52.384;20.930;2022-10-16T02:48:53;17.57;;;11.00;;
74833;SDS011;63361;52.384;20.930;2022-10-16T02:51:18;21.00;;;11.77;;
74833;SDS011;63361;52.384;20.930;2022-10-16T02:53:44;19.77;;;10.77;;
74833;SDS011;63361;52.384;20.930;2022-10-16T02:56:09;20.53;;;12.03;;
74833;SDS011;63361;52.384;20.930;2022-10-16T02:58:35;19.60;;;10.48;;
74833;SDS011;63361;52.384;20.930;2022-10-16T03:01:00;18.43;;;10.93;;
74833;SDS011;63361;52.384;20.930;2022-10-16T03:03:25;19.37;;;10.53;;
74833;SDS011;63361;52.384;20.930;2022-10-16T03:05:51;18.70;;;11.00;;
74833;SDS011;63361;52.384;20.930;2022-10-16T03:08:16;21.43;;;11.37;;
74833;SDS011;63361;52.384;20.930;2022-10-16T03:10:42;19.65;;;11.65;;
74833;SDS011;63361;52.384;20.930;2022-10-16T03:13:07;18.17;;;10.67;;
74833;SDS011;63361;52.384;20.930;2022-10-16T03:15:33;22.33;;;11.63;;
74833;SDS011;63361;52.384;20.930;2022-10-16T03:17:58;18.50;;;10.97;;
74833;SDS011;63361;52.384;20.930;2022-10-16T03:20:24;18.35;;;10.88;;
74833;SDS011;63361;52.384;20.930;2022-10-16T03:22:50;20.63;;;12.13;;
74833;SDS011;63361;52.384;20.930;2022-10-16T03:25:16;20.53;;;10.77;;
74833;SDS011;63361;52.384;20.930;2022-10-16T03:27:41;27.98;;;11.95;;
74833;SDS011;63361;52.384;20.930;2022-10-16T03:30:07;17.43;;;10.73;;
74833;SDS011;63361;52.384;20.930;2022-10-16T03:32:33;22.05;;;13.43;;
74833;SDS011;63361;52.384;20.930;2022-10-16T03:34:58;22.27;;;11.73;;
74833;SDS011;63361;52.384;20.930;2022-10-16T03:37:23;20.17;;;11.20;;
74833;SDS011;63361;52.384;20.930;2022-10-16T03:39:49;21.27;;;12.00;;
74833;SDS011;63361;52.384;20.930;2022-10-16T03:42:14;19.53;;;11.67;;
74833;SDS011;63361;52.384;20.930;2022-10-16T03:44:39;23.77;;;11.70;;
74833;SDS011;63361;52.384;20.930;2022-10-16T03:47:05;23.23;;;11.53;;
74833;SDS011;63361;52.384;20.930;2022-10-16T03:49:30;19.90;;;11.57;;
74833;SDS011;63361;52.384;20.930;2022-10-16T03:51:55;22.70;;;12.30;;
74833;SDS011;63361;52.384;20.930;2022-10-16T03:54:21;18.57;;;11.40;;
74833;SDS011;63361;52.384;20.930;2022-10-16T03:56:47;21.15;;;12.02;;
74833;SDS011;63361;52.384;20.930;2022-10-16T03:59:12;18.33;;;11.40;;
74833;SDS011;63361;52.384;20.930;2022-10-16T04:01:38;21.17;;;12.13;;
74833;SDS011;63361;52.384;20.930;2022-10-16T04:04:03;20.97;;;11.90;;
74833;SDS011;63361;52.384;20.930;2022-10-16T04:06:28;21.33;;;11.70;;
74833;SDS011;63361;52.384;20.930;2022-10-16T04:08:54;22.70;;;12.33;;
74833;SDS011;63361;52.384;20.930;2022-10-16T04:11:19;23.20;;;12.67;;
74833;SDS011;63361;52.384;20.930;2022-10-16T04:13:44;23.33;;;13.00;;
74833;SDS011;63361;52.384;20.930;2022-10-16T04:16:10;21.10;;;12.20;;
74833;SDS011;63361;52.384;20.930;2022-10-16T04:18:35;19.57;;;12.33;;
74833;SDS011;63361;52.384;20.930;2022-10-16T04:21:04;24.63;;;12.90;;
74833;SDS011;63361;52.384;20.930;2022-10-16T04:23:31;21.23;;;12.52;;
74833;SDS011;63361;52.384;20.930;2022-10-16T04:25:56;25.63;;;13.47;;
74833;SDS011;63361;52.384;20.930;2022-10-16T04:28:22;24.23;;;13.15;;
74833;SDS011;63361;52.384;20.930;2022-10-16T04:30:47;25.63;;;13.77;;
74833;SDS011;63361;52.384;20.930;2022-10-16T04:33:13;21.73;;;13.40;;
74833;SDS011;63361;52.384;20.930;2022-10-16T04:35:38;24.30;;;13.03;;
74833;SDS011;63361;52.384;20.930;2022-10-16T04:38:03;22.17;;;13.30;;
74833;SDS011;63361;52.384;20.930;2022-10-16T04:40:29;23.70;;;13.73;;
74833;SDS011;63361;52.384;20.930;2022-10-16T04:42:57;25.05;;;14.18;;
74833;SDS011;63361;52.384;20.930;2022-10-16T04:45:23;24.07;;;14.27;;
74833;SDS011;63361;52.384;20.930;2022-10-16T04:47:48;25.13;;;14.50;;
74833;SDS011;63361;52.384;20.930;2022-10-16T04:50:14;23.33;;;14.40;;
74833;SDS011;63361;52.384;20.930;2022-10-16T04:52:39;26.10;;;15.87;;
74833;SDS011;63361;52.384;20.930;2022-10-16T04:55:05;25.47;;;15.53;;
74833;SDS011;63361;52.384;20.930;2022-10-16T04:57:30;25.67;;;15.32;;
74833;SDS011;63361;52.384;20.930;2022-10-16T04:59:56;29.00;;;15.70;;
74833;SDS011;63361;52.384;20.930;2022-10-16T05:02:21;22.57;;;13.63;;
74833;SDS011;63361;52.384;20.930;2022-10-16T05:04:46;29.27;;;15.37;;
74833;SDS011;63361;52.384;20.930;2022-10-16T05:07:12;27.70;;;15.85;;
74833;SDS011;63361;52.384;20.930;2022-10-16T05:09:37;26.47;;;15.23;;
74833;SDS011;63361;52.384;20.930;2022-10-16T05:12:03;28.77;;;15.93;;
74833;SDS011;63361;52.384;20.930;2022-10-16T05:14:28;25.17;;;14.87;;
74833;SDS011;63361;52.384;20.930;2022-10-16T05:16:54;25.83;;;14.82;;
74833;SDS011;63361;52.384;20.930;2022-10-16T05:19:19;27.90;;;15.13;;
74833;SDS011;63361;52.384;20.930;2022-10-16T05:21:45;28.00;;;16.07;;
74833;SDS011;63361;52.384;20.930;2022-10-16T05:24:10;24.10;;;15.70;;
74833;SDS011;63361;52.384;20.930;2022-10-16T05:26:36;26.03;;;15.57;;
74833;SDS011;63361;52.384;20.930;2022-10-16T05:29:01;23.93;;;15.23;;
74833;SDS011;63361;52.384;20.930;2022-10-16T05:31:27;26.73;;;15.77;;
74833;SDS011;63361;52.384;20.930;2022-10-16T05:33:57;26.73;;;15.07;;
74833;SDS011;63361;52.384;20.930;2022-10-16T05:36:23;26.17;;;14.80;;
74833;SDS011;63361;52.384;20.930;2022-10-16T05:38:50;27.37;;;15.07;;
74833;SDS011;63361;52.384;20.930;2022-10-16T05:41:16;25.20;;;14.35;;
74833;SDS011;63361;52.384;20.930;2022-10-16T05:43:46;21.67;;;13.27;;
74833;SDS011;63361;52.384;20.930;2022-10-16T05:46:14;25.00;;;13.87;;
74833;SDS011;63361;52.384;20.930;2022-10-16T05:48:40;23.00;;;14.40;;
74833;SDS011;63361;52.384;20.930;2022-10-16T05:51:06;27.67;;;14.93;;
74833;SDS011;63361;52.384;20.930;2022-10-16T05:53:34;26.35;;;14.35;;
74833;SDS011;63361;52.384;20.930;2022-10-16T05:56:01;23.55;;;14.60;;
74833;SDS011;63361;52.384;20.930;2022-10-16T05:58:31;23.58;;;14.13;;
74833;SDS011;63361;52.384;20.930;2022-10-16T06:01:00;26.07;;;14.80;;
74833;SDS011;63361;52.384;20.930;2022-10-16T06:03:26;25.00;;;15.32;;
74833;SDS011;63361;52.384;20.930;2022-10-16T06:05:51;24.30;;;15.85;;
74833;SDS011;63361;52.384;20.930;2022-10-16T06:08:17;23.27;;;14.80;;
74833;SDS011;63361;52.384;20.930;2022-10-16T06:10:44;21.80;;;14.02;;
74833;SDS011;63361;52.384;20.930;2022-10-16T06:13:10;24.73;;;15.13;;
74833;SDS011;63361;52.384;20.930;2022-10-16T06:15:37;25.00;;;13.67;;
74833;SDS011;63361;52.384;20.930;2022-10-16T06:18:04;22.17;;;13.27;;
74833;SDS011;63361;52.384;20.930;2022-10-16T06:20:30;21.65;;;13.52;;
74833;SDS011;63361;52.384;20.930;2022-10-16T06:22:55;20.97;;;13.10;;
74833;SDS011;63361;52.384;20.930;2022-10-16T06:25:20;22.40;;;13.27;;
74833;SDS011;63361;52.384;20.930;2022-10-16T06:27:46;21.40;;;12.37;;
74833;SDS011;63361;52.384;20.930;2022-10-16T06:30:11;21.10;;;12.97;;
74833;SDS011;63361;52.384;20.930;2022-10-16T06:32:36;20.35;;;12.13;;
74833;SDS011;63361;52.384;20.930;2022-10-16T06:35:02;23.57;;;12.00;;
74833;SDS011;63361;52.384;20.930;2022-10-16T06:37:27;22.60;;;12.47;;
74833;SDS011;63361;52.384;20.930;2022-10-16T06:39:52;19.23;;;11.60;;
74833;SDS011;63361;52.384;20.930;2022-10-16T06:42:18;18.93;;;11.87;;
74833;SDS011;63361;52.384;20.930;2022-10-16T06:44:44;19.25;;;11.90;;
74833;SDS011;63361;52.384;20.930;2022-10-16T06:47:09;18.97;;;11.07;;
74833;SDS011;63361;52.384;20.930;2022-10-16T06:49:35;18.53;;;10.93;;
74833;SDS011;63361;52.384;20.930;2022-10-16T06:52:00;18.27;;;9.97;;
74833;SDS011;63361;52.384;20.930;2022-10-16T06:54:26;20.00;;;9.73;;
74833;SDS011;63361;52.384;20.930;2022-10-16T06:56:52;16.97;;;9.57;;
74833;SDS011;63361;52.384;20.930;2022-10-16T06:59:19;17.80;;;9.68;;
74833;SDS011;63361;52.384;20.930;2022-10-16T07:01:45;19.50;;;9.30;;
74833;SDS011;63361;52.384;20.930;2022-10-16T07:04:10;14.83;;;9.03;;
74833;SDS011;63361;52.384;20.930;2022-10-16T07:06:35;14.33;;;8.80;;
74833;SDS011;63361;52.384;20.930;2022-10-16T07:09:02;16.53;;;9.60;;
74833;SDS011;63361;52.384;20.930;2022-10-16T07:11:29;16.15;;;9.95;;
74833;SDS011;63361;52.384;20.930;2022-10-16T07:13:55;14.63;;;8.80;;
74833;SDS011;63361;52.384;20.930;2022-10-16T07:16:21;15.73;;;9.50;;
74833;SDS011;63361;52.384;20.930;2022-10-16T07:18:57;16.00;;;9.30;;
74833;SDS011;63361;52.384;20.930;2022-10-16T07:21:25;16.42;;;10.60;;
74833;SDS011;63361;52.384;20.930;2022-10-16T07:23:54;15.02;;;10.45;;
74833;SDS011;63361;52.384;20.930;2022-10-16T07:26:21;16.70;;;10.70;;
74833;SDS011;63361;52.384;20.930;2022-10-16T07:28:47;16.53;;;10.63;;
74833;SDS011;63361;52.384;20.930;2022-10-16T07:31:14;20.90;;;10.93;;
74833;SDS011;63361;52.384;20.930;2022-10-16T07:33:41;16.73;;;10.95;;
74833;SDS011;63361;52.384;20.930;2022-10-16T07:36:09;22.60;;;10.25;;
74833;SDS011;63361;52.384;20.930;2022-10-16T07:38:35;16.83;;;10.98;;
74833;SDS011;63361;52.384;20.930;2022-10-16T07:41:05;19.00;;;10.97;;
74833;SDS011;63361;52.384;20.930;2022-10-16T07:43:31;18.90;;;10.15;;
74833;SDS011;63361;52.384;20.930;2022-10-16T07:45:57;18.73;;;10.93;;
74833;SDS011;63361;52.384;20.930;2022-10-16T07:48:23;17.37;;;9.60;;
74833;SDS011;63361;52.384;20.930;2022-10-16T07:50:56;16.07;;;9.33;;
74833;SDS011;63361;52.384;20.930;2022-10-16T07:53:26;13.90;;;8.85;;
74833;SDS011;63361;52.384;20.930;2022-10-16T07:55:52;16.58;;;10.00;;
74833;SDS011;63361;52.384;20.930;2022-10-16T07:58:21;16.42;;;9.68;;
74833;SDS011;63361;52.384;20.930;2022-10-16T08:00:46;16.23;;;9.47;;
74833;SDS011;63361;52.384;20.930;2022-10-16T08:03:12;16.63;;;9.50;;
74833;SDS011;63361;52.384;20.930;2022-10-16T08:05:37;15.70;;;8.90;;
74833;SDS011;63361;52.384;20.930;2022-10-16T08:08:02;14.53;;;8.90;;
74833;SDS011;63361;52.384;20.930;2022-10-16T08:10:28;14.60;;;9.40;;
74833;SDS011;63361;52.384;20.930;2022-10-16T08:12:54;16.50;;;9.93;;
74833;SDS011;63361;52.384;20.930;2022-10-16T08:15:20;14.60;;;9.23;;
74833;SDS011;63361;52.384;20.930;2022-10-16T08:17:58;19.73;;;9.77;;
74833;SDS011;63361;52.384;20.930;2022-10-16T08:20:28;16.50;;;9.90;;
74833;SDS011;63361;52.384;20.930;2022-10-16T08:22:55;15.98;;;9.32;;
74833;SDS011;63361;52.384;20.930;2022-10-16T08:25:23;17.70;;;9.33;;
74833;SDS011;63361;52.384;20.930;2022-10-16T08:27:49;16.77;;;8.93;;
74833;SDS011;63361;52.384;20.930;2022-10-16T08:30:16;16.63;;;9.82;;
74833;SDS011;63361;52.384;20.930;2022-10-16T08:32:43;16.98;;;9.93;;
74833;SDS011;63361;52.384;20.930;2022-10-16T08:35:09;16.27;;;9.63;;
74833;SDS011;63361;52.384;20.930;2022-10-16T08:37:35;18.13;;;9.70;;
74833;SDS011;63361;52.384;20.930;2022-10-16T08:40:00;18.17;;;10.53;;
74833;SDS011;63361;52.384;20.930;2022-10-16T08:45:18;16.03;;;9.83;;
74833;SDS011;63361;52.384;20.930;2022-10-16T08:48:03;16.48;;;9.40;;
74833;SDS011;63361;52.384;20.930;2022-10-16T08:50:40;14.82;;;9.52;;
74833;SDS011;63361;52.384;20.930;2022-10-16T08:53:05;17.60;;;9.47;;
74833;SDS011;63361;52.384;20.930;2022-10-16T08:58:21;14.90;;;9.55;;
74833;SDS011;63361;52.384;20.930;2022-10-16T09:00:54;14.75;;;9.18;;
74833;SDS011;63361;52.384;20.930;2022-10-16T09:03:42;16.02;;;10.00;;
74833;SDS011;63361;52.384;20.930;2022-10-16T09:12:08;13.48;;;9.23;;
74833;SDS011;63361;52.384;20.930;2022-10-16T09:20:25;13.25;;;7.70;;
74833;SDS011;63361;52.384;20.930;2022-10-16T09:25:28;13.93;;;7.97;;
74833;SDS011;63361;52.384;20.930;2022-10-16T09:27:53;13.70;;;8.02;;
74833;SDS011;63361;52.384;20.930;2022-10-16T09:30:20;11.97;;;7.63;;
74833;SDS011;63361;52.384;20.930;2022-10-16T09:32:47;13.48;;;7.28;;
74833;SDS011;63361;52.384;20.930;2022-10-16T09:35:22;15.68;;;8.48;;
74833;SDS011;63361;52.384;20.930;2022-10-16T09:37:56;13.82;;;7.30;;
74833;SDS011;63361;52.384;20.930;2022-10-16T09:40:25;12.53;;;7.73;;
74833;SDS011;63361;52.384;20.930;2022-10-16T09:43:01;13.00;;;7.45;;
74833;SDS011;63361;52.384;20.930;2022-10-16T09:45:43;14.40;;;7.75;;
74833;SDS011;63361;52.384;20.930;2022-10-16T09:48:12;13.67;;;7.50;;
74833;SDS011;63361;52.384;20.930;2022-10-16T09:50:54;12.13;;;7.95;;
74833;SDS011;63361;52.384;20.930;2022-10-16T09:53:21;11.43;;;7.30;;
74833;SDS011;63361;52.384;20.930;2022-10-16T09:55:50;13.13;;;7.50;;
74833;SDS011;63361;52.384;20.930;2022-10-16T09:58:17;10.98;;;6.82;;
74833;SDS011;63361;52.384;20.930;2022-10-16T10:00:49;11.65;;;7.07;;
74833;SDS011;63361;52.384;20.930;2022-10-16T10:03:30;11.82;;;6.97;;
74833;SDS011;63361;52.384;20.930;2022-10-16T10:06:06;11.17;;;6.93;;
74833;SDS011;63361;52.384;20.930;2022-10-16T10:08:52;10.63;;;7.30;;
74833;SDS011;63361;52.384;20.930;2022-10-16T10:11:38;11.60;;;7.18;;
74833;SDS011;63361;52.384;20.930;2022-10-16T10:16:46;11.10;;;6.88;;
74833;SDS011;63361;52.384;20.930;2022-10-16T10:19:17;12.43;;;6.90;;
74833;SDS011;63361;52.384;20.930;2022-10-16T10:21:44;12.68;;;7.03;;
74833;SDS011;63361;52.384;20.930;2022-10-16T10:24:13;13.60;;;6.82;;
74833;SDS011;63361;52.384;20.930;2022-10-16T10:26:48;11.27;;;7.10;;
74833;SDS011;63361;52.384;20.930;2022-10-16T10:37:42;11.45;;;7.10;;
74833;SDS011;63361;52.384;20.930;2022-10-16T10:40:24;16.25;;;7.53;;
74833;SDS011;63361;52.384;20.930;2022-10-16T10:45:48;12.57;;;7.33;;
74833;SDS011;63361;52.384;20.930;2022-10-16T10:48:26;15.73;;;8.32;;
74833;SDS011;63361;52.384;20.930;2022-10-16T10:53:56;14.68;;;7.53;;
74833;SDS011;63361;52.384;20.930;2022-10-16T10:56:52;16.15;;;7.03;;
74833;SDS011;63361;52.384;20.930;2022-10-16T11:07:57;13.95;;;7.50;;
74833;SDS011;63361;52.384;20.930;2022-10-16T11:10:38;11.73;;;7.30;;
74833;SDS011;63361;52.384;20.930;2022-10-16T11:13:14;11.97;;;6.90;;
74833;SDS011;63361;52.384;20.930;2022-10-16T11:15:47;10.90;;;6.93;;
74833;SDS011;63361;52.384;20.930;2022-10-16T11:18:18;10.40;;;7.22;;
74833;SDS011;63361;52.384;20.930;2022-10-16T11:20:52;11.40;;;7.15;;
74833;SDS011;63361;52.384;20.930;2022-10-16T11:23:33;13.00;;;6.93;;
74833;SDS011;63361;52.384;20.930;2022-10-16T11:26:05;11.10;;;7.43;;
74833;SDS011;63361;52.384;20.930;2022-10-16T11:28:47;11.48;;;6.78;;
74833;SDS011;63361;52.384;20.930;2022-10-16T11:37:05;11.80;;;6.80;;
74833;SDS011;63361;52.384;20.930;2022-10-16T11:39:37;11.60;;;6.63;;
74833;SDS011;63361;52.384;20.930;2022-10-16T11:44:38;14.57;;;6.80;;
74833;SDS011;63361;52.384;20.930;2022-10-16T11:47:33;10.57;;;6.40;;
74833;SDS011;63361;52.384;20.930;2022-10-16T11:50:06;10.90;;;6.43;;
74833;SDS011;63361;52.384;20.930;2022-10-16T11:53:03;12.63;;;7.05;;
74833;SDS011;63361;52.384;20.930;2022-10-16T11:55:34;12.77;;;7.60;;
74833;SDS011;63361;52.384;20.930;2022-10-16T11:58:51;15.93;;;7.20;;
74833;SDS011;63361;52.384;20.930;2022-10-16T12:06:25;10.77;;;6.60;;
74833;SDS011;63361;52.384;20.930;2022-10-16T12:09:01;10.48;;;6.95;;
74833;SDS011;63361;52.384;20.930;2022-10-16T12:16:50;11.95;;;7.00;;
74833;SDS011;63361;52.384;20.930;2022-10-16T12:19:17;12.73;;;6.93;;
74833;SDS011;63361;52.384;20.930;2022-10-16T12:21:43;11.23;;;6.70;;
74833;SDS011;63361;52.384;20.930;2022-10-16T12:30:14;12.88;;;7.22;;
74833;SDS011;63361;52.384;20.930;2022-10-16T12:32:52;14.40;;;6.97;;
74833;SDS011;63361;52.384;20.930;2022-10-16T12:35:21;12.07;;;7.10;;
74833;SDS011;63361;52.384;20.930;2022-10-16T12:37:49;11.13;;;7.25;;
74833;SDS011;63361;52.384;20.930;2022-10-16T12:40:36;11.73;;;7.40;;
74833;SDS011;63361;52.384;20.930;2022-10-16T12:43:12;10.60;;;7.25;;
74833;SDS011;63361;52.384;20.930;2022-10-16T12:45:58;15.70;;;6.72;;
74833;SDS011;63361;52.384;20.930;2022-10-16T12:48:25;10.80;;;6.55;;
74833;SDS011;63361;52.384;20.930;2022-10-16T12:50:51;12.93;;;6.87;;
74833;SDS011;63361;52.384;20.930;2022-10-16T12:53:18;13.53;;;6.97;;
74833;SDS011;63361;52.384;20.930;2022-10-16T12:55:49;12.95;;;6.90;;
74833;SDS011;63361;52.384;20.930;2022-10-16T13:03:48;11.90;;;7.03;;
74833;SDS011;63361;52.384;20.930;2022-10-16T13:12:15;10.75;;;6.47;;
74833;SDS011;63361;52.384;20.930;2022-10-16T13:15:47;12.05;;;6.60;;
74833;SDS011;63361;52.384;20.930;2022-10-16T13:24:08;10.57;;;6.40;;
74833;SDS011;63361;52.384;20.930;2022-10-16T13:27:00;13.73;;;7.55;;
74833;SDS011;63361;52.384;20.930;2022-10-16T13:29:51;11.38;;;6.65;;
74833;SDS011;63361;52.384;20.930;2022-10-16T13:32:20;14.60;;;7.40;;
74833;SDS011;63361;52.384;20.930;2022-10-16T13:34:47;12.65;;;6.95;;
74833;SDS011;63361;52.384;20.930;2022-10-16T13:37:21;11.70;;;7.35;;
74833;SDS011;63361;52.384;20.930;2022-10-16T13:39:47;11.98;;;7.05;;
74833;SDS011;63361;52.384;20.930;2022-10-16T13:42:14;10.87;;;6.60;;
74833;SDS011;63361;52.384;20.930;2022-10-16T13:44:47;12.60;;;6.97;;
74833;SDS011;63361;52.384;20.930;2022-10-16T13:47:19;11.02;;;6.93;;
74833;SDS011;63361;52.384;20.930;2022-10-16T13:49:45;11.18;;;7.13;;
74833;SDS011;63361;52.384;20.930;2022-10-16T13:52:16;12.25;;;7.75;;
74833;SDS011;63361;52.384;20.930;2022-10-16T13:54:44;12.23;;;7.37;;
74833;SDS011;63361;52.384;20.930;2022-10-16T13:57:12;11.73;;;7.32;;
74833;SDS011;63361;52.384;20.930;2022-10-16T13:59:39;13.27;;;7.40;;
74833;SDS011;63361;52.384;20.930;2022-10-16T14:04:59;14.02;;;7.50;;
74833;SDS011;63361;52.384;20.930;2022-10-16T14:07:28;10.95;;;7.40;;
74833;SDS011;63361;52.384;20.930;2022-10-16T14:09:56;13.63;;;7.75;;
74833;SDS011;63361;52.384;20.930;2022-10-16T14:12:28;11.90;;;7.57;;
74833;SDS011;63361;52.384;20.930;2022-10-16T14:14:53;16.43;;;8.27;;
74833;SDS011;63361;52.384;20.930;2022-10-16T14:19:54;13.55;;;7.60;;
74833;SDS011;63361;52.384;20.930;2022-10-16T14:22:35;12.00;;;8.25;;
74833;SDS011;63361;52.384;20.930;2022-10-16T14:25:16;14.27;;;8.30;;
74833;SDS011;63361;52.384;20.930;2022-10-16T14:27:45;12.07;;;7.90;;
74833;SDS011;63361;52.384;20.930;2022-10-16T14:30:23;14.70;;;8.93;;
74833;SDS011;63361;52.384;20.930;2022-10-16T14:35:36;14.90;;;8.70;;
74833;SDS011;63361;52.384;20.930;2022-10-16T14:38:03;14.18;;;8.40;;
74833;SDS011;63361;52.384;20.930;2022-10-16T14:40:34;15.13;;;9.13;;
74833;SDS011;63361;52.384;20.930;2022-10-16T14:43:02;15.02;;;8.55;;
74833;SDS011;63361;52.384;20.930;2022-10-16T14:45:33;15.25;;;8.65;;
74833;SDS011;63361;52.384;20.930;2022-10-16T14:48:01;15.67;;;8.23;;
74833;SDS011;63361;52.384;20.930;2022-10-16T14:50:28;13.20;;;8.38;;
74833;SDS011;63361;52.384;20.930;2022-10-16T14:52:54;13.23;;;8.27;;
74833;SDS011;63361;52.384;20.930;2022-10-16T14:55:19;17.00;;;8.27;;
74833;SDS011;63361;52.384;20.930;2022-10-16T14:57:45;13.73;;;8.60;;
74833;SDS011;63361;52.384;20.930;2022-10-16T15:00:18;16.67;;;8.60;;
74833;SDS011;63361;52.384;20.930;2022-10-16T15:02:47;16.67;;;8.65;;
74833;SDS011;63361;52.384;20.930;2022-10-16T15:07:51;12.25;;;7.72;;
74833;SDS011;63361;52.384;20.930;2022-10-16T15:10:18;13.18;;;8.43;;
74833;SDS011;63361;52.384;20.930;2022-10-16T15:12:45;17.47;;;10.43;;
74833;SDS011;63361;52.384;20.930;2022-10-16T15:17:57;13.38;;;8.05;;
74833;SDS011;63361;52.384;20.930;2022-10-16T15:20:43;15.07;;;7.63;;
74833;SDS011;63361;52.384;20.930;2022-10-16T15:23:12;15.48;;;7.57;;
74833;SDS011;63361;52.384;20.930;2022-10-16T15:28:10;14.95;;;8.07;;
74833;SDS011;63361;52.384;20.930;2022-10-16T15:30:37;13.68;;;7.80;;
74833;SDS011;63361;52.384;20.930;2022-10-16T15:33:03;15.80;;;9.23;;
74833;SDS011;63361;52.384;20.930;2022-10-16T15:35:29;30.38;;;14.55;;
74833;SDS011;63361;52.384;20.930;2022-10-16T15:37:55;35.22;;;16.83;;
74833;SDS011;63361;52.384;20.930;2022-10-16T15:40:21;52.30;;;23.10;;
74833;SDS011;63361;52.384;20.930;2022-10-16T15:42:47;45.13;;;20.30;;
74833;SDS011;63361;52.384;20.930;2022-10-16T15:45:14;59.15;;;25.42;;
74833;SDS011;63361;52.384;20.930;2022-10-16T15:47:42;32.13;;;14.03;;
74833;SDS011;63361;52.384;20.930;2022-10-16T15:50:09;19.50;;;10.63;;
74833;SDS011;63361;52.384;20.930;2022-10-16T15:52:36;16.92;;;9.30;;
74833;SDS011;63361;52.384;20.930;2022-10-16T15:55:04;14.73;;;9.07;;
74833;SDS011;63361;52.384;20.930;2022-10-16T15:57:30;17.25;;;9.23;;
74833;SDS011;63361;52.384;20.930;2022-10-16T15:59:56;14.90;;;9.10;;
74833;SDS011;63361;52.384;20.930;2022-10-16T16:02:21;14.80;;;8.87;;
74833;SDS011;63361;52.384;20.930;2022-10-16T16:04:46;16.50;;;9.43;;
74833;SDS011;63361;52.384;20.930;2022-10-16T16:07:12;13.47;;;8.80;;
74833;SDS011;63361;52.384;20.930;2022-10-16T16:09:37;13.97;;;9.33;;
74833;SDS011;63361;52.384;20.930;2022-10-16T16:12:03;14.83;;;9.57;;
74833;SDS011;63361;52.384;20.930;2022-10-16T16:14:28;15.57;;;9.50;;
74833;SDS011;63361;52.384;20.930;2022-10-16T16:16:54;15.90;;;9.70;;
74833;SDS011;63361;52.384;20.930;2022-10-16T16:19:20;17.38;;;11.18;;
74833;SDS011;63361;52.384;20.930;2022-10-16T16:21:46;25.65;;;12.80;;
74833;SDS011;63361;52.384;20.930;2022-10-16T16:24:12;27.90;;;14.73;;
74833;SDS011;63361;52.384;20.930;2022-10-16T16:26:38;19.60;;;10.87;;